Time;durP1;ratioP1;P1;durP2;ratioP2;P2;SDS_P1;SDS_P2;PMS_P1;PMS_P2;Temp;Humidity;BMP_temperature;BMP_pressure;BME280_temperature;BME280_humidity;BME280_pressure;Samples;Min_cycle;Max_cycle;Signal;HPM_P1;HPM_P2
2021/12/31 00:01:09;;;;;;;4.15;1.48;;;13.50;99.90;;;;;;5037273;28;20306;-66
2021/12/31 00:03:35;;;;;;;2.70;1.10;;;13.60;99.90;;;;;;5043753;28;20067;-67
2021/12/31 00:06:00;;;;;;;2.10;1.20;;;13.60;99.90;;;;;;5045641;28;20591;-66
2021/12/31 00:08:26;;;;;;;1.85;0.90;;;13.60;99.90;;;;;;5046793;28;20029;-67
2021/12/31 00:10:56;;;;;;;3.35;1.10;;;13.60;99.90;;;;;;5042623;28;20415;-67
2021/12/31 00:13:22;;;;;;;3.83;1.40;;;13.60;99.90;;;;;;5044737;28;20021;-67
2021/12/31 00:15:47;;;;;;;3.00;1.20;;;13.60;99.90;;;;;;5047309;28;20024;-67
2021/12/31 00:18:13;;;;;;;2.30;1.15;;;13.70;99.90;;;;;;5058118;28;20035;-66
2021/12/31 00:20:40;;;;;;;3.45;1.15;;;13.70;99.90;;;;;;5043200;28;20028;-67
2021/12/31 00:23:11;;;;;;;4.00;1.33;;;13.70;99.90;;;;;;5046149;28;20028;-67
2021/12/31 00:25:40;;;;;;;7.53;1.42;;;13.60;99.90;;;;;;5039841;28;20036;-66
2021/12/31 00:28:06;;;;;;;2.47;1.20;;;13.60;99.90;;;;;;5040503;28;20044;-66
2021/12/31 00:30:33;;;;;;;6.88;1.20;;;13.70;99.90;;;;;;5041589;28;20131;-67
2021/12/31 00:33:01;;;;;;;3.28;1.05;;;13.70;99.90;;;;;;5039698;28;20063;-67
2021/12/31 00:35:27;;;;;;;4.30;1.35;;;13.70;99.90;;;;;;5040901;28;20054;-66
2021/12/31 00:37:52;;;;;;;1.15;0.70;;;13.70;99.90;;;;;;5043391;28;20103;-66
2021/12/31 00:40:18;;;;;;;2.78;1.13;;;13.70;99.90;;;;;;5045774;28;20492;-67
2021/12/31 00:42:45;;;;;;;2.58;0.90;;;13.70;99.90;;;;;;5036349;28;20393;-66
2021/12/31 00:45:18;;;;;;;3.88;1.30;;;13.70;99.90;;;;;;5031914;28;20382;-66
2021/12/31 00:47:44;;;;;;;3.28;0.93;;;13.70;99.90;;;;;;5030313;28;20030;-66
2021/12/31 00:50:10;;;;;;;1.70;0.95;;;13.80;99.90;;;;;;5029354;28;20029;-66
2021/12/31 00:52:36;;;;;;;3.25;1.30;;;13.80;99.90;;;;;;5030367;28;20021;-66
2021/12/31 00:55:04;;;;;;;0.90;0.85;;;13.80;99.90;;;;;;5025031;28;20096;-66
2021/12/31 00:57:30;;;;;;;1.75;0.90;;;13.80;99.90;;;;;;5030387;28;20478;-67
2021/12/31 00:59:56;;;;;;;2.22;0.82;;;13.80;99.90;;;;;;5026819;28;20025;-66
2021/12/31 01:02:25;;;;;;;2.75;1.00;;;13.80;99.90;;;;;;5032809;28;20029;-66
2021/12/31 01:04:50;;;;;;;4.13;1.10;;;13.90;99.90;;;;;;5028362;28;20079;-67
2021/12/31 01:07:16;;;;;;;0.75;0.63;;;13.90;99.90;;;;;;5023283;28;20038;-67
2021/12/31 01:09:41;;;;;;;2.72;1.10;;;14.00;99.90;;;;;;5029475;28;20412;-66
2021/12/31 01:12:10;;;;;;;4.68;1.50;;;13.90;99.90;;;;;;5029434;28;20017;-67
2021/12/31 01:14:40;;;;;;;1.98;1.00;;;13.90;99.90;;;;;;5031414;28;20026;-67
2021/12/31 01:17:09;;;;;;;1.75;0.80;;;14.00;99.90;;;;;;5025016;28;20022;-66
2021/12/31 01:19:45;;;;;;;2.67;0.90;;;14.00;99.90;;;;;;5031871;28;20029;-66
2021/12/31 01:22:13;;;;;;;2.28;0.77;;;14.00;99.90;;;;;;5029707;28;20075;-68
2021/12/31 01:24:38;;;;;;;1.33;0.90;;;14.00;99.90;;;;;;5033081;28;20108;-66
2021/12/31 01:27:04;;;;;;;2.05;0.65;;;14.00;99.90;;;;;;5028705;28;20460;-66
2021/12/31 01:29:29;;;;;;;1.52;0.80;;;14.10;99.90;;;;;;5029029;28;20080;-66
2021/12/31 01:31:55;;;;;;;1.95;0.90;;;14.00;99.90;;;;;;5024246;28;20030;-66
2021/12/31 01:34:23;;;;;;;2.13;0.80;;;14.10;99.90;;;;;;5030509;28;20021;-66
2021/12/31 01:36:50;;;;;;;3.97;1.25;;;14.10;99.90;;;;;;5021455;28;20021;-67
2021/12/31 01:39:15;;;;;;;3.00;1.00;;;14.00;99.90;;;;;;5027943;28;21034;-67
2021/12/31 01:41:41;;;;;;;1.90;0.88;;;14.10;99.90;;;;;;5030687;28;20056;-67
2021/12/31 01:44:07;;;;;;;2.33;1.00;;;14.10;99.90;;;;;;5027054;28;20033;-67
2021/12/31 01:46:36;;;;;;;2.05;1.00;;;14.10;99.90;;;;;;5027442;28;20068;-67
2021/12/31 01:49:03;;;;;;;2.47;0.95;;;14.10;99.90;;;;;;5030759;28;20500;-66
2021/12/31 01:51:30;;;;;;;2.25;0.90;;;14.20;99.90;;;;;;5024124;28;20037;-66
2021/12/31 01:53:56;;;;;;;2.33;1.00;;;14.20;99.90;;;;;;5022823;28;20021;-66
2021/12/31 01:56:23;;;;;;;1.73;0.80;;;14.20;99.90;;;;;;5027261;28;20052;-67
2021/12/31 01:58:54;;;;;;;0.55;0.55;;;14.10;99.90;;;;;;5029884;28;20373;-67
2021/12/31 02:01:20;;;;;;;5.25;1.30;;;14.20;99.90;;;;;;5023994;28;20108;-66
2021/12/31 02:03:46;;;;;;;2.03;0.90;;;14.20;99.90;;;;;;5025435;28;20029;-67
2021/12/31 02:06:12;;;;;;;4.47;1.15;;;14.10;99.90;;;;;;5021120;28;20048;-67
2021/12/31 02:08:37;;;;;;;1.88;0.88;;;14.10;99.90;;;;;;5023706;28;20609;-66
2021/12/31 02:11:03;;;;;;;3.10;1.05;;;14.20;99.90;;;;;;5034068;28;20443;-67
2021/12/31 02:13:29;;;;;;;2.17;1.00;;;14.20;99.90;;;;;;5020738;28;20029;-67
2021/12/31 02:15:55;;;;;;;0.98;0.65;;;14.20;99.90;;;;;;5029147;28;20088;-67
2021/12/31 02:18:20;;;;;;;2.05;0.73;;;14.20;99.90;;;;;;5027960;28;20025;-67
2021/12/31 02:20:48;;;;;;;2.70;1.25;;;14.20;99.90;;;;;;5026873;28;20065;-67
2021/12/31 02:23:20;;;;;;;2.95;0.80;;;14.30;99.90;;;;;;5031653;28;20435;-67
2021/12/31 02:25:46;;;;;;;2.05;0.98;;;14.30;99.90;;;;;;5025347;28;20544;-67
2021/12/31 02:28:12;;;;;;;5.47;1.20;;;14.30;99.90;;;;;;5026068;28;20064;-66
2021/12/31 02:30:38;;;;;;;2.70;0.90;;;14.20;99.90;;;;;;5019623;28;20167;-67
2021/12/31 02:33:04;;;;;;;3.78;1.10;;;14.20;99.90;;;;;;5026032;28;20100;-67
2021/12/31 02:35:32;;;;;;;1.73;0.85;;;14.20;99.90;;;;;;5027455;28;20022;-66
2021/12/31 02:37:57;;;;;;;2.17;0.80;;;14.10;99.90;;;;;;5026048;28;20021;-66
2021/12/31 02:40:24;;;;;;;3.90;1.10;;;14.20;99.90;;;;;;5029488;28;20040;-66
2021/12/31 02:42:50;;;;;;;2.40;0.80;;;14.20;99.90;;;;;;5024472;28;20055;-67
2021/12/31 02:45:16;;;;;;;2.72;1.23;;;14.20;99.90;;;;;;5033470;28;20065;-67
2021/12/31 02:47:46;;;;;;;2.20;0.70;;;14.20;99.90;;;;;;5031295;28;20073;-66
2021/12/31 02:50:17;;;;;;;1.83;0.70;;;14.20;99.90;;;;;;5035192;28;20090;-66
2021/12/31 02:52:45;;;;;;;2.63;1.13;;;14.30;99.90;;;;;;5040219;28;20049;-66
2021/12/31 02:55:12;;;;;;;3.35;1.02;;;14.30;99.90;;;;;;5036875;28;20026;-67
2021/12/31 02:57:39;;;;;;;2.15;1.00;;;14.30;99.90;;;;;;5041049;28;20330;-66
2021/12/31 03:00:06;;;;;;;1.58;0.82;;;14.30;99.90;;;;;;5031297;28;20343;-66
2021/12/31 03:02:35;;;;;;;2.65;1.02;;;14.30;99.90;;;;;;5037681;28;20084;-66
2021/12/31 03:05:01;;;;;;;2.22;0.98;;;14.20;99.90;;;;;;5031015;28;20511;-66
2021/12/31 03:07:29;;;;;;;2.58;1.13;;;14.20;99.90;;;;;;5035916;28;20035;-67
2021/12/31 03:09:56;;;;;;;0.70;0.70;;;14.20;99.90;;;;;;5030561;28;20089;-67
2021/12/31 03:12:22;;;;;;;2.53;1.00;;;14.20;99.90;;;;;;5033610;28;20028;-66
2021/12/31 03:14:49;;;;;;;2.83;1.20;;;14.20;99.90;;;;;;5033853;28;20021;-66
2021/12/31 03:17:16;;;;;;;3.90;0.68;;;14.20;99.90;;;;;;5035821;28;20013;-66
2021/12/31 03:19:43;;;;;;;1.75;0.88;;;14.30;99.90;;;;;;5035169;28;20084;-67
2021/12/31 03:22:09;;;;;;;3.10;0.93;;;14.30;99.90;;;;;;5038346;28;20025;-66
2021/12/31 03:24:34;;;;;;;2.85;1.05;;;14.30;99.90;;;;;;5034913;28;20030;-66
2021/12/31 03:27:00;;;;;;;2.42;1.02;;;14.20;99.90;;;;;;5038762;28;20021;-66
2021/12/31 03:29:26;;;;;;;1.42;0.85;;;14.20;99.90;;;;;;5032548;28;20051;-66
2021/12/31 03:31:52;;;;;;;1.30;0.75;;;14.20;99.90;;;;;;5035935;28;20504;-67
2021/12/31 03:34:18;;;;;;;1.90;0.98;;;14.20;99.90;;;;;;5028175;28;20486;-67
2021/12/31 03:36:44;;;;;;;2.67;0.90;;;14.20;99.90;;;;;;5034747;28;20163;-66
2021/12/31 03:39:10;;;;;;;2.50;1.10;;;14.20;99.90;;;;;;5035609;28;20063;-67
2021/12/31 03:41:36;;;;;;;1.73;0.90;;;14.20;99.90;;;;;;5033388;28;20045;-67
2021/12/31 03:44:03;;;;;;;2.17;0.90;;;14.20;99.90;;;;;;5030523;28;20065;-67
2021/12/31 03:46:29;;;;;;;2.72;0.98;;;14.20;99.90;;;;;;5034536;28;20367;-66
2021/12/31 03:48:55;;;;;;;2.25;0.93;;;14.20;99.90;;;;;;5030657;28;20124;-67
2021/12/31 03:51:20;;;;;;;2.75;0.98;;;14.20;99.90;;;;;;5032500;28;20570;-66
2021/12/31 03:53:46;;;;;;;2.08;0.80;;;14.20;99.90;;;;;;5036832;28;20111;-67
2021/12/31 03:56:12;;;;;;;2.00;1.10;;;14.20;99.90;;;;;;5028449;28;20029;-66
2021/12/31 03:58:37;;;;;;;4.70;0.98;;;14.20;99.90;;;;;;5035096;28;20029;-67
2021/12/31 04:01:03;;;;;;;1.55;0.85;;;14.20;99.90;;;;;;5037253;28;20037;-67
2021/12/31 04:03:29;;;;;;;2.67;0.90;;;14.20;99.90;;;;;;5026842;28;20033;-66
2021/12/31 04:05:55;;;;;;;1.35;0.82;;;14.20;99.90;;;;;;5036710;28;20373;-66
2021/12/31 04:08:20;;;;;;;1.20;0.70;;;14.20;99.90;;;;;;5033403;28;20095;-66
2021/12/31 04:10:46;;;;;;;1.63;0.90;;;14.20;99.90;;;;;;5036576;28;20120;-66
2021/12/31 04:13:12;;;;;;;4.32;1.30;;;14.20;99.90;;;;;;5034321;28;20333;-66
2021/12/31 04:15:37;;;;;;;4.35;0.90;;;14.20;99.90;;;;;;5031915;28;20030;-66
2021/12/31 04:18:03;;;;;;;1.70;0.85;;;14.20;99.90;;;;;;5038950;28;20048;-66
2021/12/31 04:20:38;;;;;;;2.30;1.00;;;14.20;99.90;;;;;;5035620;28;20535;-66
2021/12/31 04:23:27;;;;;;;0.68;0.65;;;14.10;99.90;;;;;;5039785;28;20018;-66
2021/12/31 04:25:54;;;;;;;1.08;0.70;;;14.20;99.90;;;;;;5037730;28;20033;-67
2021/12/31 04:28:19;;;;;;;3.88;1.20;;;14.10;99.90;;;;;;5039178;28;20032;-67
2021/12/31 04:30:45;;;;;;;3.33;1.23;;;14.20;99.90;;;;;;5035087;28;20515;-67
2021/12/31 04:33:11;;;;;;;2.53;1.05;;;14.10;99.90;;;;;;5035279;28;20104;-67
2021/12/31 04:35:36;;;;;;;4.93;1.05;;;14.10;99.90;;;;;;5038376;28;20030;-66
2021/12/31 04:38:02;;;;;;;4.82;1.00;;;14.10;99.90;;;;;;5039430;28;20028;-66
2021/12/31 04:40:28;;;;;;;2.38;0.90;;;14.20;99.90;;;;;;5039848;28;20048;-66
2021/12/31 04:42:54;;;;;;;1.52;0.70;;;14.20;99.90;;;;;;5037305;28;20520;-66
2021/12/31 04:45:19;;;;;;;1.80;0.65;;;14.20;99.90;;;;;;5038827;28;20087;-67
2021/12/31 04:47:45;;;;;;;7.65;1.30;;;14.20;99.90;;;;;;5038223;28;20226;-67
2021/12/31 04:50:12;;;;;;;1.17;0.70;;;14.20;99.90;;;;;;5040667;28;20374;-67
2021/12/31 04:52:39;;;;;;;2.55;0.90;;;14.20;99.90;;;;;;5042582;28;20074;-66
2021/12/31 04:55:05;;;;;;;1.95;1.00;;;14.10;99.90;;;;;;5038396;28;20026;-67
2021/12/31 04:57:31;;;;;;;1.70;0.98;;;14.10;99.90;;;;;;5034351;28;20021;-66
2021/12/31 04:59:57;;;;;;;0.40;0.40;;;14.10;99.90;;;;;;5038399;28;20092;-67
2021/12/31 05:02:22;;;;;;;1.35;0.60;;;14.00;99.90;;;;;;5038705;28;20021;-66
2021/12/31 05:04:48;;;;;;;0.77;0.70;;;14.10;99.90;;;;;;5039400;28;20040;-66
2021/12/31 05:07:14;;;;;;;1.80;0.90;;;14.00;99.90;;;;;;5035443;28;20170;-66
2021/12/31 05:09:39;;;;;;;3.75;1.02;;;14.00;99.90;;;;;;5039655;28;20040;-66
2021/12/31 05:12:06;;;;;;;1.20;0.85;;;14.00;99.90;;;;;;5038867;28;20729;-67
2021/12/31 05:14:32;;;;;;;0.77;0.55;;;14.00;99.90;;;;;;5039451;28;20025;-66
2021/12/31 05:16:59;;;;;;;1.60;0.82;;;14.00;99.90;;;;;;5041439;28;20025;-66
2021/12/31 05:19:25;;;;;;;1.50;0.75;;;14.00;99.90;;;;;;5040331;28;20013;-66
2021/12/31 05:21:51;;;;;;;0.95;0.70;;;14.00;99.90;;;;;;5037496;28;20038;-67
2021/12/31 05:24:17;;;;;;;2.25;0.90;;;14.00;99.90;;;;;;5036485;28;20492;-66
2021/12/31 05:26:43;;;;;;;1.67;0.80;;;14.00;99.90;;;;;;5041158;28;20025;-66
2021/12/31 05:29:09;;;;;;;2.20;0.88;;;14.00;99.90;;;;;;5037990;28;20469;-67
2021/12/31 05:31:35;;;;;;;5.57;1.30;;;13.90;99.90;;;;;;5035583;28;20051;-67
2021/12/31 05:34:00;;;;;;;1.45;0.70;;;13.90;99.90;;;;;;5035514;28;20039;-67
2021/12/31 05:36:26;;;;;;;1.90;0.90;;;13.90;99.90;;;;;;5036991;28;20551;-66
2021/12/31 05:38:52;;;;;;;3.03;1.08;;;13.80;99.90;;;;;;5039987;28;20025;-66
2021/12/31 05:41:18;;;;;;;2.35;1.00;;;13.80;99.90;;;;;;5034235;28;20028;-67
2021/12/31 05:43:43;;;;;;;1.67;0.93;;;13.80;99.90;;;;;;5034085;28;20495;-67
2021/12/31 05:46:09;;;;;;;3.72;0.85;;;13.70;99.90;;;;;;5035465;28;20029;-67
2021/12/31 05:48:34;;;;;;;2.85;1.00;;;13.70;99.90;;;;;;5038459;28;20024;-67
2021/12/31 05:51:01;;;;;;;1.92;0.90;;;13.60;99.90;;;;;;5037997;28;20115;-68
2021/12/31 05:53:26;;;;;;;1.98;1.00;;;13.60;99.90;;;;;;5043537;28;20024;-67
2021/12/31 05:55:52;;;;;;;3.63;1.25;;;13.50;99.90;;;;;;5037048;28;20539;-67
2021/12/31 05:58:18;;;;;;;1.60;0.90;;;13.50;99.90;;;;;;5035028;28;20026;-67
2021/12/31 06:00:43;;;;;;;1.92;0.90;;;13.40;99.90;;;;;;5037556;28;20554;-67
2021/12/31 06:03:09;;;;;;;1.10;0.75;;;13.40;99.90;;;;;;5041413;28;20033;-67
2021/12/31 06:05:36;;;;;;;1.58;0.93;;;13.40;99.90;;;;;;5035156;28;20477;-67
2021/12/31 06:08:01;;;;;;;2.13;0.80;;;13.30;99.90;;;;;;5038951;28;20030;-67
2021/12/31 06:10:27;;;;;;;4.20;1.10;;;13.30;99.90;;;;;;5040040;28;20033;-67
2021/12/31 06:12:57;;;;;;;2.50;1.02;;;13.30;99.90;;;;;;5038345;28;20120;-67
2021/12/31 06:15:23;;;;;;;;;;;13.20;99.90;;;;;;5039269;28;20022;-67
2021/12/31 06:17:50;;;;;;;1.17;0.80;;;13.20;99.90;;;;;;5041241;28;19916;-67
2021/12/31 06:20:16;;;;;;;3.45;1.10;;;13.10;99.90;;;;;;5032015;28;20029;-67
2021/12/31 06:22:41;;;;;;;2.20;0.98;;;13.10;99.90;;;;;;5037057;28;20033;-67
2021/12/31 06:25:07;;;;;;;2.20;0.85;;;13.10;99.90;;;;;;5036444;28;20044;-67
2021/12/31 06:27:33;;;;;;;2.70;1.00;;;13.00;99.90;;;;;;5032660;28;20026;-67
2021/12/31 06:29:59;;;;;;;3.13;1.13;;;13.00;99.90;;;;;;5033577;28;20519;-66
2021/12/31 06:32:24;;;;;;;1.85;0.82;;;13.00;99.90;;;;;;5031991;28;20013;-66
2021/12/31 06:34:50;;;;;;;2.90;1.02;;;13.10;99.90;;;;;;5040291;28;20021;-66
2021/12/31 06:37:15;;;;;;;4.45;1.40;;;13.10;99.90;;;;;;5033064;28;20022;-66
2021/12/31 06:39:43;;;;;;;1.98;0.82;;;13.10;99.90;;;;;;5035712;28;20029;-68
2021/12/31 06:42:09;;;;;;;2.13;1.00;;;13.20;99.90;;;;;;5035590;28;20018;-67
2021/12/31 06:44:36;;;;;;;2.28;1.00;;;13.20;99.90;;;;;;5039166;28;20420;-67
2021/12/31 06:47:03;;;;;;;2.45;0.95;;;13.20;99.90;;;;;;5032519;28;20018;-67
2021/12/31 06:49:29;;;;;;;0.90;0.77;;;13.20;99.90;;;;;;5033878;28;20499;-67
2021/12/31 06:51:55;;;;;;;3.13;1.25;;;13.20;99.90;;;;;;5034935;28;20485;-66
2021/12/31 06:54:20;;;;;;;1.45;0.90;;;13.20;99.90;;;;;;5031896;28;20059;-66
2021/12/31 06:56:46;;;;;;;1.42;0.73;;;13.20;99.90;;;;;;5033107;28;20025;-67
2021/12/31 06:59:12;;;;;;;1.80;0.80;;;13.10;99.90;;;;;;5037614;28;20060;-67
2021/12/31 07:01:37;;;;;;;2.97;1.00;;;13.20;99.90;;;;;;5034196;28;20032;-67
2021/12/31 07:04:03;;;;;;;2.25;1.00;;;13.10;99.90;;;;;;5037849;28;20083;-67
2021/12/31 07:06:29;;;;;;;1.58;0.82;;;13.00;99.90;;;;;;5035832;28;20040;-67
2021/12/31 07:08:54;;;;;;;3.97;0.90;;;13.00;99.90;;;;;;5036867;28;20026;-67
2021/12/31 07:11:22;;;;;;;4.47;0.98;;;12.90;99.90;;;;;;5036427;28;20033;-67
2021/12/31 07:13:48;;;;;;;7.03;1.20;;;12.80;99.90;;;;;;5029183;28;20021;-66
2021/12/31 07:16:14;;;;;;;1.60;0.75;;;12.80;99.90;;;;;;5036973;28;20025;-67
2021/12/31 07:18:40;;;;;;;5.47;1.40;;;12.90;99.90;;;;;;5032533;28;20515;-67
2021/12/31 07:21:05;;;;;;;1.75;0.95;;;12.90;99.90;;;;;;5033648;28;20032;-67
2021/12/31 07:23:31;;;;;;;2.92;1.13;;;12.80;99.90;;;;;;5034966;28;20033;-67
2021/12/31 07:25:57;;;;;;;2.70;0.80;;;12.90;99.90;;;;;;5026032;28;20072;-66
2021/12/31 07:28:23;;;;;;;1.38;0.80;;;12.90;99.90;;;;;;5030713;28;20147;-67
2021/12/31 07:30:49;;;;;;;2.78;1.33;;;13.00;99.90;;;;;;5030089;28;20099;-67
2021/12/31 07:33:15;;;;;;;1.50;0.88;;;13.10;99.90;;;;;;5030070;28;20014;-67
2021/12/31 07:35:41;;;;;;;2.13;0.90;;;13.00;99.90;;;;;;5031946;28;20424;-67
2021/12/31 07:38:07;;;;;;;2.05;0.90;;;13.00;99.90;;;;;;5033978;28;20030;-67
2021/12/31 07:40:41;;;;;;;3.13;1.08;;;13.00;99.90;;;;;;5029532;28;20026;-67
2021/12/31 07:43:09;;;;;;;2.47;1.10;;;13.00;99.90;;;;;;5027489;28;20032;-67
2021/12/31 07:45:35;;;;;;;2.00;0.90;;;13.00;99.90;;;;;;5027717;28;20025;-67
2021/12/31 07:48:01;;;;;;;7.03;1.20;;;13.00;99.90;;;;;;5029036;28;20424;-66
2021/12/31 07:50:27;;;;;;;1.77;0.82;;;13.00;99.90;;;;;;5033764;28;20029;-67
2021/12/31 07:52:52;;;;;;;3.22;1.20;;;12.90;99.90;;;;;;5034096;28;20213;-67
2021/12/31 07:55:18;;;;;;;2.17;0.93;;;12.80;99.90;;;;;;5036940;28;20032;-67
2021/12/31 07:57:44;;;;;;;4.35;1.05;;;12.80;99.90;;;;;;5036569;28;20022;-67
2021/12/31 08:00:10;;;;;;;3.45;1.10;;;12.80;99.90;;;;;;5034541;28;20124;-67
2021/12/31 08:02:35;;;;;;;1.58;0.80;;;12.80;99.90;;;;;;5015835;28;20541;-67
2021/12/31 08:05:01;;;;;;;2.05;0.90;;;12.80;99.90;;;;;;5029121;28;20112;-67
2021/12/31 08:07:27;;;;;;;2.78;1.23;;;12.80;99.90;;;;;;5034377;28;20093;-67
2021/12/31 08:09:53;;;;;;;3.67;1.20;;;12.80;99.90;;;;;;5023580;28;20121;-67
2021/12/31 08:12:18;;;;;;;1.92;0.90;;;12.80;99.90;;;;;;5034354;28;20534;-66
2021/12/31 08:14:44;;;;;;;2.95;0.88;;;12.80;99.90;;;;;;5040623;28;20079;-66
2021/12/31 08:17:09;;;;;;;1.55;0.82;;;12.90;99.90;;;;;;5035797;28;20025;-66
2021/12/31 08:19:35;;;;;;;2.85;1.05;;;12.90;99.90;;;;;;5037027;28;20485;-67
2021/12/31 08:22:01;;;;;;;1.63;0.95;;;12.90;99.90;;;;;;5039883;28;20361;-66
2021/12/31 08:24:26;;;;;;;3.78;1.40;;;12.90;99.90;;;;;;5031337;28;20128;-66
2021/12/31 08:26:52;;;;;;;3.75;1.33;;;13.00;99.90;;;;;;5032130;28;20271;-66
2021/12/31 08:29:18;;;;;;;2.33;0.80;;;12.90;99.90;;;;;;5034147;28;20112;-67
2021/12/31 08:31:44;;;;;;;1.98;0.95;;;12.90;99.90;;;;;;5034771;28;20021;-66
2021/12/31 08:34:11;;;;;;;6.25;1.48;;;12.90;99.90;;;;;;5032359;28;20509;-67
2021/12/31 08:36:37;;;;;;;2.85;1.10;;;12.90;99.90;;;;;;5030304;28;20105;-68
2021/12/31 08:39:07;;;;;;;2.90;1.08;;;12.80;99.90;;;;;;5033944;28;20021;-68
2021/12/31 08:41:33;;;;;;;;;;;12.80;99.90;;;;;;5037646;28;20053;-66
2021/12/31 08:43:59;;;;;;;2.97;1.02;;;12.80;99.90;;;;;;5035023;28;19909;-67
2021/12/31 08:46:25;;;;;;;2.28;0.93;;;12.70;99.90;;;;;;5036640;28;20402;-66
2021/12/31 08:48:50;;;;;;;2.88;1.15;;;12.70;99.90;;;;;;5032968;28;20560;-66
2021/12/31 08:51:16;;;;;;;5.18;1.60;;;12.70;99.90;;;;;;5032346;28;20029;-65
2021/12/31 08:53:42;;;;;;;3.13;1.35;;;12.70;99.90;;;;;;5035230;28;20072;-65
2021/12/31 08:56:07;;;;;;;3.08;1.20;;;12.80;99.90;;;;;;5033609;28;20062;-65
2021/12/31 08:58:33;;;;;;;3.08;1.08;;;12.90;99.90;;;;;;5035643;28;20501;-67
2021/12/31 09:00:59;;;;;;;1.73;0.95;;;12.90;99.90;;;;;;5037007;28;20029;-66
2021/12/31 09:03:24;;;;;;;4.28;1.30;;;13.00;99.90;;;;;;5033514;28;20021;-66
2021/12/31 09:05:50;;;;;;;3.33;1.10;;;13.10;99.90;;;;;;5036940;28;20119;-66
2021/12/31 09:08:16;;;;;;;4.20;1.35;;;13.30;99.90;;;;;;5033878;28;20040;-67
2021/12/31 09:10:42;;;;;;;2.75;1.00;;;13.50;99.90;;;;;;5032833;28;20029;-66
2021/12/31 09:13:08;;;;;;;3.63;0.98;;;13.80;99.90;;;;;;5037559;28;20022;-66
2021/12/31 09:15:34;;;;;;;0.75;0.55;;;13.70;99.90;;;;;;5036734;28;20026;-65
2021/12/31 09:17:59;;;;;;;2.17;0.82;;;13.60;99.90;;;;;;5031049;28;20040;-65
2021/12/31 09:20:26;;;;;;;2.00;0.85;;;13.40;99.90;;;;;;5036431;28;20033;-65
2021/12/31 09:22:52;;;;;;;1.60;0.80;;;13.40;99.90;;;;;;5034162;28;20110;-65
2021/12/31 09:25:18;;;;;;;3.72;0.85;;;13.40;99.90;;;;;;5041517;28;20111;-66
2021/12/31 09:27:44;;;;;;;2.95;1.10;;;13.40;99.90;;;;;;5028003;28;20033;-66
2021/12/31 09:30:10;;;;;;;2.33;1.00;;;13.50;99.90;;;;;;5035747;28;20050;-66
2021/12/31 09:32:36;;;;;;;0.70;0.70;;;13.50;99.90;;;;;;5031673;28;20452;-66
2021/12/31 09:35:02;;;;;;;1.38;0.88;;;13.50;99.90;;;;;;5036361;28;20021;-66
2021/12/31 09:37:27;;;;;;;0.60;0.60;;;13.70;99.90;;;;;;5037899;28;20025;-67
2021/12/31 09:39:53;;;;;;;3.00;1.00;;;13.80;99.90;;;;;;5029505;28;20025;-67
2021/12/31 09:42:19;;;;;;;3.67;1.25;;;13.70;99.90;;;;;;5032811;28;20053;-67
2021/12/31 09:44:48;;;;;;;1.50;0.75;;;13.80;99.90;;;;;;5032637;28;20195;-67
2021/12/31 09:47:18;;;;;;;2.80;1.02;;;13.80;99.90;;;;;;5040329;28;20485;-65
2021/12/31 09:49:46;;;;;;;1.95;0.80;;;13.80;99.90;;;;;;5030711;28;20026;-65
2021/12/31 09:52:13;;;;;;;2.08;0.80;;;14.10;99.90;;;;;;5035115;28;20151;-65
2021/12/31 09:54:47;;;;;;;4.70;1.25;;;14.10;99.90;;;;;;5029788;28;20393;-66
2021/12/31 09:57:18;;;;;;;1.13;0.85;;;14.10;99.90;;;;;;5032199;28;20025;-68
2021/12/31 09:59:46;;;;;;;1.33;0.88;;;14.40;99.90;;;;;;5038470;28;20586;-65
2021/12/31 10:02:12;;;;;;;1.63;1.52;;;14.40;99.90;;;;;;5039568;28;20062;-65
2021/12/31 10:04:59;;;;;;;1.30;0.70;;;14.50;99.90;;;;;;5036164;28;20486;-65
2021/12/31 10:07:28;;;;;;;1.70;0.80;;;14.40;99.90;;;;;;5025674;28;20318;-67
2021/12/31 10:10:15;;;;;;;3.20;1.00;;;14.40;99.90;;;;;;5034399;28;20112;-66
2021/12/31 10:12:48;;;;;;;1.77;0.90;;;14.40;99.90;;;;;;5032739;28;20023;-66
2021/12/31 10:15:14;;;;;;;2.63;1.13;;;14.40;99.90;;;;;;5036028;28;20100;-66
2021/12/31 10:17:40;;;;;;;2.10;0.90;;;14.30;99.90;;;;;;5037333;28;20025;-66
2021/12/31 10:20:06;;;;;;;0.80;0.80;;;14.30;99.90;;;;;;5033986;28;20045;-66
2021/12/31 10:22:32;;;;;;;2.67;1.15;;;14.30;99.90;;;;;;5030968;28;20026;-67
2021/12/31 10:24:58;;;;;;;2.30;0.85;;;14.50;99.90;;;;;;5030622;28;20029;-66
2021/12/31 10:27:25;;;;;;;0.88;0.75;;;14.50;99.90;;;;;;5027155;28;20199;-67
2021/12/31 10:29:59;;;;;;;1.65;0.75;;;14.40;99.90;;;;;;5032023;28;20056;-67
2021/12/31 10:32:27;;;;;;;1.23;0.75;;;14.30;99.90;;;;;;5029348;28;20477;-68
2021/12/31 10:34:53;;;;;;;1.80;0.85;;;14.40;99.90;;;;;;5026325;28;20108;-67
2021/12/31 10:37:25;;;;;;;1.65;0.90;;;14.30;99.90;;;;;;5028971;28;20449;-68
2021/12/31 10:40:00;;;;;;;2.92;0.90;;;14.50;99.90;;;;;;5034746;28;20033;-66
2021/12/31 10:42:31;;;;;;;1.67;0.90;;;15.20;99.90;;;;;;5030409;28;20022;-68
2021/12/31 10:44:57;;;;;;;;;;;15.20;99.90;;;;;;5035973;28;20032;-66
2021/12/31 10:47:31;;;;;;;1.75;0.80;;;14.90;99.90;;;;;;5031818;28;20003;-66
2021/12/31 10:50:00;;;;;;;3.78;0.73;;;14.70;99.90;;;;;;5034496;28;20028;-66
2021/12/31 10:52:36;;;;;;;3.53;0.80;;;14.60;99.90;;;;;;5027032;28;20036;-67
2021/12/31 10:55:17;;;;;;;2.88;0.90;;;14.60;99.90;;;;;;5030456;28;20129;-67
2021/12/31 10:57:44;;;;;;;2.00;1.05;;;14.50;99.90;;;;;;5032958;28;20025;-67
2021/12/31 11:00:10;;;;;;;1.23;0.77;;;14.50;99.90;;;;;;5031377;28;20025;-67
2021/12/31 11:02:37;;;;;;;5.05;1.33;;;14.50;99.90;;;;;;5030565;28;20404;-68
2021/12/31 11:05:05;;;;;;;2.30;1.00;;;14.40;99.90;;;;;;5034211;28;20074;-66
2021/12/31 11:07:31;;;;;;;1.95;0.95;;;14.40;99.90;;;;;;5028812;28;20017;-66
2021/12/31 11:09:58;;;;;;;1.60;0.88;;;14.40;99.90;;;;;;5033620;28;20370;-66
2021/12/31 11:12:25;;;;;;;2.33;0.85;;;14.40;99.90;;;;;;5032214;28;20056;-65
2021/12/31 11:14:52;;;;;;;2.13;1.00;;;14.40;99.90;;;;;;5033484;28;20021;-66
2021/12/31 11:17:17;;;;;;;1.27;0.90;;;14.40;99.90;;;;;;5033877;28;20032;-66
2021/12/31 11:19:45;;;;;;;4.95;0.85;;;14.50;99.90;;;;;;5033897;28;20018;-65
2021/12/31 11:22:13;;;;;;;3.40;1.35;;;14.60;99.90;;;;;;5033874;28;20421;-67
2021/12/31 11:24:39;;;;;;;2.13;0.80;;;14.60;99.90;;;;;;5032990;28;20057;-67
2021/12/31 11:27:29;;;;;;;2.75;1.00;;;14.50;99.90;;;;;;5025950;28;20021;-68
2021/12/31 11:29:56;;;;;;;1.55;0.80;;;14.50;99.90;;;;;;5035152;28;20132;-66
2021/12/31 11:33:00;;;;;;;0.60;0.60;;;14.30;99.90;;;;;;5035058;28;20033;-66
2021/12/31 11:35:40;;;;;;;0.90;0.80;;;14.20;99.90;;;;;;4990270;28;20098;-68
2021/12/31 11:38:12;;;;;;;;;;;14.20;99.90;;;;;;4990615;28;20026;-67
2021/12/31 11:40:41;;;;;;;2.35;0.90;;;14.20;99.90;;;;;;4990765;28;19999;-67
2021/12/31 11:43:26;;;;;;;1.50;0.73;;;14.20;99.90;;;;;;4989151;28;20031;-67
2021/12/31 11:46:15;;;;;;;1.55;0.90;;;14.20;99.90;;;;;;4991295;28;20095;-66
2021/12/31 11:48:47;;;;;;;1.48;0.82;;;14.20;99.90;;;;;;4989389;28;20034;-67
2021/12/31 11:51:33;;;;;;;2.22;0.63;;;14.20;99.90;;;;;;4993528;28;20026;-66
2021/12/31 11:53:58;;;;;;;2.30;0.90;;;14.20;99.90;;;;;;4993607;28;20049;-67
2021/12/31 11:56:35;;;;;;;2.65;1.00;;;14.20;99.90;;;;;;4979055;28;20065;-66
2021/12/31 11:59:07;;;;;;;1.42;0.77;;;14.20;99.90;;;;;;4988957;28;20109;-66
2021/12/31 12:01:46;;;;;;;1.77;0.90;;;14.20;99.90;;;;;;4991702;28;20031;-66
2021/12/31 12:04:18;;;;;;;3.50;1.00;;;14.30;99.90;;;;;;4992649;28;20530;-65
2021/12/31 12:07:03;;;;;;;2.25;1.05;;;14.30;99.90;;;;;;5022225;28;20710;-66
2021/12/31 12:09:41;;;;;;;2.78;0.90;;;14.30;99.90;;;;;;5035826;28;20021;-66
2021/12/31 12:12:27;;;;;;;8.80;0.95;;;14.30;99.90;;;;;;5032925;28;20025;-65
2021/12/31 12:14:57;;;;;;;1.00;0.70;;;14.30;99.90;;;;;;5029863;28;20018;-66
2021/12/31 12:17:28;;;;;;;1.38;0.80;;;14.40;99.90;;;;;;5031665;28;20021;-65
2021/12/31 12:19:57;;;;;;;2.15;1.00;;;14.30;99.90;;;;;;5038469;28;20028;-66
2021/12/31 12:22:27;;;;;;;1.77;1.00;;;14.40;99.90;;;;;;5030661;28;20071;-68
2021/12/31 12:24:58;;;;;;;2.90;1.08;;;14.50;99.90;;;;;;5029853;28;20017;-66
2021/12/31 12:27:25;;;;;;;3.15;1.27;;;14.60;99.90;;;;;;5036936;28;20017;-66
2021/12/31 12:29:52;;;;;;;2.60;0.93;;;14.60;99.90;;;;;;5037469;28;20033;-65
2021/12/31 12:32:30;;;;;;;3.00;1.13;;;14.50;99.90;;;;;;5030896;28;20040;-65
2021/12/31 12:34:56;;;;;;;2.35;1.10;;;14.50;99.90;;;;;;5029933;28;20030;-65
2021/12/31 12:37:27;;;;;;;1.13;0.80;;;14.60;99.90;;;;;;5027965;28;20022;-66
2021/12/31 12:40:00;;;;;;;5.45;1.10;;;14.70;99.90;;;;;;5034937;28;20041;-65
2021/12/31 12:42:26;;;;;;;2.90;1.00;;;15.20;99.90;;;;;;5031523;28;20018;-65
2021/12/31 12:45:01;;;;;;;2.42;1.00;;;15.80;99.90;;;;;;5030361;28;20021;-65
2021/12/31 12:47:27;;;;;;;3.58;1.00;;;15.80;99.90;;;;;;5023281;28;20029;-66
2021/12/31 12:49:57;;;;;;;2.05;0.85;;;15.00;99.90;;;;;;5033003;28;20477;-66